Time;durP1;ratioP1;P1;durP2;ratioP2;P2;SDS_P1;SDS_P2;PMS_P1;PMS_P2;Temp;Humidity;BMP_temperature;BMP_pressure;BME280_temperature;BME280_humidity;BME280_pressure;Samples;Min_cycle;Max_cycle;Signal;HPM_P1;HPM_P2
2020/12/21 00:01:53;;;;;;;13.63;4.60;;;;;;;6.77;100.00;101585.63;5023689;28;20504;-85
2020/12/21 00:04:18;;;;;;;17.65;5.03;;;;;;;6.77;100.00;101582.13;5017991;28;20549;-86
2020/12/21 00:06:44;;;;;;;11.52;5.10;;;;;;;6.74;100.00;101583.19;5023503;28;20063;-87
2020/12/21 00:09:10;;;;;;;13.02;4.60;;;;;;;6.72;100.00;101584.28;5023771;28;20037;-86
2020/12/21 00:11:38;;;;;;;13.63;5.05;;;;;;;6.71;100.00;101579.94;5022290;28;20057;-88
2020/12/21 00:14:06;;;;;;;14.65;4.88;;;;;;;6.67;100.00;101581.13;4998767;28;20049;-86
2020/12/21 00:16:40;;;;;;;14.65;5.13;;;;;;;6.65;100.00;101575.91;5014458;28;20490;-85
2020/12/21 00:19:08;;;;;;;11.60;4.55;;;;;;;6.62;100.00;101586.81;5015071;28;20042;-89
2020/12/21 00:21:36;;;;;;;14.45;5.45;;;;;;;6.58;100.00;101587.19;5019874;28;20033;-87
2020/12/21 00:24:03;;;;;;;15.32;4.78;;;;;;;6.54;100.00;101583.91;5014128;28;20037;-85
2020/12/21 00:26:28;;;;;;;16.70;4.65;;;;;;;6.51;100.00;101590.31;5022253;28;20120;-86
2020/12/21 00:28:54;;;;;;;14.35;4.70;;;;;;;6.50;100.00;101590.44;5027378;28;20502;-86
2020/12/21 00:31:29;;;;;;;13.90;5.20;;;;;;;6.46;100.00;101597.81;5012578;28;20041;-86
2020/12/21 00:33:56;;;;;;;12.77;4.50;;;;;;;6.43;100.00;101587.38;5015675;28;20034;-84
2020/12/21 00:36:22;;;;;;;19.20;5.03;;;;;;;6.39;100.00;101588.59;5029777;28;20501;-85
2020/12/21 00:38:49;;;;;;;15.13;5.57;;;;;;;6.37;100.00;101584.34;5025429;28;20049;-88
2020/12/21 00:41:17;;;;;;;13.50;4.65;;;;;;;6.30;100.00;101590.16;5028609;28;20043;-89
2020/12/21 00:43:47;;;;;;;16.15;5.32;;;;;;;6.28;100.00;101581.41;5001996;28;20068;-86
2020/12/21 00:46:20;;;;;;;13.82;5.03;;;;;;;6.26;100.00;101595.81;5019959;28;20041;-89
2020/12/21 00:48:46;;;;;;;16.35;5.05;;;;;;;6.24;100.00;101589.75;5019257;28;20038;-86
2020/12/21 00:51:12;;;;;;;13.57;5.15;;;;;;;6.22;100.00;101586.38;5010177;28;20045;-86
2020/12/21 00:53:38;;;;;;;14.75;5.43;;;;;;;6.20;100.00;101589.16;5012454;28;20394;-83
2020/12/21 00:56:05;;;;;;;14.55;5.28;;;;;;;6.10;100.00;101589.00;5017767;28;20100;-85
2020/12/21 00:58:31;;;;;;;14.60;5.88;;;;;;;6.08;100.00;101582.94;5032995;28;20034;-86
2020/12/21 01:00:57;;;;;;;16.33;5.50;;;;;;;6.06;100.00;101587.53;5027062;28;20057;-88
2020/12/21 01:03:23;;;;;;;12.00;5.38;;;;;;;6.05;100.00;101591.16;5000896;28;20124;-86
2020/12/21 01:05:49;;;;;;;15.35;5.82;;;;;;;6.04;100.00;101589.47;5011728;28;20046;-86
2020/12/21 01:08:14;;;;;;;14.77;4.82;;;;;;;6.00;100.00;101598.63;5016082;28;20402;-84
2020/12/21 01:10:40;;;;;;;16.33;5.95;;;;;;;5.99;100.00;101596.09;5001082;28;20099;-85
2020/12/21 01:13:05;;;;;;;14.45;5.70;;;;;;;5.98;100.00;101602.38;5005791;28;20037;-87
2020/12/21 01:15:31;;;;;;;18.92;5.22;;;;;;;5.98;100.00;101597.91;4998257;28;20068;-86
2020/12/21 01:17:58;;;;;;;19.67;6.10;;;;;;;5.98;100.00;101613.88;5014934;28;20554;-84
2020/12/21 01:20:23;;;;;;;14.45;5.60;;;;;;;5.95;100.00;101614.13;5018103;28;20038;-88
2020/12/21 01:22:50;;;;;;;15.90;5.97;;;;;;;5.96;100.00;101607.84;5024563;28;20530;-85
2020/12/21 01:25:15;;;;;;;20.23;6.45;;;;;;;5.96;100.00;101607.84;5024596;28;20033;-88
2020/12/21 01:27:41;;;;;;;14.98;5.95;;;;;;;5.93;100.00;101608.06;5015865;28;20080;-85
2020/12/21 01:30:06;;;;;;;14.95;4.82;;;;;;;5.94;100.00;101599.09;4993744;28;20061;-86
2020/12/21 01:32:31;;;;;;;15.48;4.93;;;;;;;5.92;100.00;101598.31;5018478;28;20041;-86
2020/12/21 01:34:57;;;;;;;13.82;4.93;;;;;;;5.93;100.00;101593.84;5020918;28;20104;-86
2020/12/21 01:37:22;;;;;;;16.65;5.35;;;;;;;5.92;100.00;101598.31;5021922;28;20065;-85
2020/12/21 01:39:48;;;;;;;12.80;5.38;;;;;;;5.89;100.00;101601.22;5024061;28;20076;-85
2020/12/21 01:42:18;;;;;;;10.80;4.88;;;;;;;5.88;100.00;101602.19;5006974;28;20065;-84
2020/12/21 01:44:48;;;;;;;16.60;6.43;;;;;;;5.85;100.00;101600.59;5025700;28;20449;-89
2020/12/21 01:47:15;;;;;;;17.10;5.97;;;;;;;5.81;100.00;101603.59;5019648;28;20125;-88
2020/12/21 01:49:41;;;;;;;16.10;5.30;;;;;;;5.76;100.00;101606.63;5017360;28;20473;-87
2020/12/21 01:52:07;;;;;;;17.67;5.47;;;;;;;5.72;100.00;101599.81;5021763;28;20457;-85
2020/12/21 01:54:33;;;;;;;16.67;6.10;;;;;;;5.72;100.00;101607.78;5029414;28;20041;-87
2020/12/21 01:56:59;;;;;;;14.45;5.85;;;;;;;5.65;100.00;101599.41;5027977;28;20121;-88
2020/12/21 01:59:26;;;;;;;16.45;5.78;;;;;;;5.63;100.00;101597.81;5008013;28;20137;-87
2020/12/21 02:01:52;;;;;;;17.88;5.97;;;;;;;5.63;100.00;101604.00;5027352;28;20053;-85
2020/12/21 02:04:19;;;;;;;16.20;5.22;;;;;;;5.60;100.00;101603.38;5013232;28;20132;-85
2020/12/21 02:06:45;;;;;;;16.00;5.47;;;;;;;5.59;100.00;101602.53;5000211;28;20120;-86
2020/12/21 02:09:11;;;;;;;13.07;5.68;;;;;;;5.59;100.00;101602.53;5019653;28;20052;-87
2020/12/21 02:11:42;;;;;;;20.25;7.20;;;;;;;5.58;100.00;101602.63;5022291;28;20037;-87
2020/12/21 02:14:07;;;;;;;17.73;5.80;;;;;;;5.57;100.00;101603.59;5017980;28;20034;-89
2020/12/21 02:16:34;;;;;;;19.75;6.07;;;;;;;5.57;100.00;101598.28;5025615;28;20044;-86
2020/12/21 02:18:59;;;;;;;11.73;5.28;;;;;;;5.53;100.00;101602.97;5023872;28;20072;-85
2020/12/21 02:21:25;;;;;;;14.65;5.95;;;;;;;5.52;100.00;101606.59;5030290;28;20437;-88
2020/12/21 02:23:50;;;;;;;11.43;5.13;;;;;;;5.48;100.00;101609.59;5014777;28;20068;-84
2020/12/21 02:26:16;;;;;;;12.18;5.03;;;;;;;5.43;100.00;101610.78;5030763;28;20045;-85
2020/12/21 02:28:42;;;;;;;17.10;6.03;;;;;;;5.41;100.00;101612.72;5022195;28;20421;-84
2020/12/21 02:31:08;;;;;;;14.95;5.70;;;;;;;5.40;100.00;101610.16;5003718;28;20034;-85
2020/12/21 02:33:34;;;;;;;18.20;5.82;;;;;;;5.35;100.00;101609.63;5023756;28;20512;-88
2020/12/21 02:36:05;;;;;;;21.13;6.55;;;;;;;5.34;100.00;101614.09;5011247;28;20096;-86
2020/12/21 02:38:30;;;;;;;17.98;5.88;;;;;;;5.32;100.00;101617.81;5021226;28;20033;-88
2020/12/21 02:40:56;;;;;;;19.85;5.82;;;;;;;5.23;100.00;101616.69;5006665;28;20044;-85
2020/12/21 02:43:23;;;;;;;17.20;6.22;;;;;;;5.20;100.00;101612.41;5004688;28;20128;-87
2020/12/21 02:45:49;;;;;;;18.88;6.60;;;;;;;5.19;100.00;101609.88;5003116;28;20096;-85
2020/12/21 02:48:15;;;;;;;16.52;5.60;;;;;;;5.11;100.00;101613.09;5016710;28;20516;-87
2020/12/21 02:50:40;;;;;;;14.85;6.63;;;;;;;5.10;100.00;101613.22;5013097;28;20053;-87
2020/12/21 02:53:06;;;;;;;17.23;6.35;;;;;;;5.08;100.00;101612.47;5020314;28;20037;-87
2020/12/21 02:55:33;;;;;;;16.70;6.45;;;;;;;5.07;100.00;101614.28;5007499;28;20552;-84
2020/12/21 02:57:59;;;;;;;15.90;6.60;;;;;;;5.01;100.00;101608.53;4986852;28;20042;-86
2020/12/21 03:00:24;;;;;;;13.45;6.82;;;;;;;5.00;100.00;101605.00;4989837;28;20134;-85
2020/12/21 03:02:53;;;;;;;18.15;6.85;;;;;;;5.02;100.00;101605.75;5025796;28;20046;-88
2020/12/21 03:05:19;;;;;;;18.55;6.80;;;;;;;5.03;100.00;101606.59;4992603;28;20490;-84
2020/12/21 03:07:45;;;;;;;15.07;6.68;;;;;;;5.02;100.00;101608.41;5020542;28;20107;-86
2020/12/21 03:10:11;;;;;;;13.65;7.13;;;;;;;5.07;100.00;101610.75;5010904;28;20033;-86
2020/12/21 03:12:36;;;;;;;16.23;6.70;;;;;;;5.08;100.00;101607.97;5023973;28;20069;-90
2020/12/21 03:15:03;;;;;;;16.20;6.93;;;;;;;5.10;100.00;101602.56;5008284;28;20065;-86
2020/12/21 03:17:28;;;;;;;14.50;6.50;;;;;;;5.12;100.00;101606.81;5019246;28;20505;-87
2020/12/21 03:19:53;;;;;;;16.00;6.78;;;;;;;5.14;100.00;101599.56;5000028;28;20041;-87
2020/12/21 03:22:19;;;;;;;13.52;5.50;;;;;;;5.14;100.00;101606.69;5024742;28;20092;-87
2020/12/21 03:24:46;;;;;;;15.50;6.00;;;;;;;5.13;100.00;101616.50;5009220;28;20116;-84
2020/12/21 03:27:13;;;;;;;14.52;6.07;;;;;;;5.13;100.00;101618.31;5010000;28;20052;-84
2020/12/21 03:29:39;;;;;;;13.55;5.20;;;;;;;5.15;100.00;101609.25;5017992;28;20046;-90
2020/12/21 03:32:05;;;;;;;16.08;6.68;;;;;;;5.18;100.00;101605.53;5003190;28;20037;-85
2020/12/21 03:34:31;;;;;;;12.95;6.43;;;;;;;5.19;100.00;101607.22;5008810;28;20401;-87
2020/12/21 03:36:56;;;;;;;14.10;5.32;;;;;;;5.19;100.00;101613.38;5004882;28;20046;-86
2020/12/21 03:39:21;;;;;;;14.95;5.05;;;;;;;5.21;100.00;101605.31;5022182;28;20038;-87
2020/12/21 03:41:48;;;;;;;12.82;5.93;;;;;;;5.23;100.00;101603.38;5012429;28;20128;-87
2020/12/21 03:44:13;;;;;;;15.82;5.75;;;;;;;5.26;100.00;101600.50;5020348;28;20040;-86
2020/12/21 03:46:39;;;;;;;16.05;5.60;;;;;;;5.26;100.00;101600.50;5004683;28;20061;-88
2020/12/21 03:49:06;;;;;;;15.07;5.30;;;;;;;5.23;100.00;101592.72;5000889;28;20108;-88
2020/12/21 03:51:31;;;;;;;14.70;5.30;;;;;;;5.23;100.00;101591.88;5016036;28;20053;-86
2020/12/21 03:53:56;;;;;;;14.52;6.13;;;;;;;5.25;100.00;101587.31;4992033;28;20041;-86
2020/12/21 03:56:23;;;;;;;14.52;5.18;;;;;;;5.18;100.00;101582.44;5006922;28;20221;-84
2020/12/21 03:58:49;;;;;;;12.77;4.43;;;;;;;5.18;100.00;101579.78;5022148;28;20053;-86
2020/12/21 04:01:15;;;;;;;14.85;5.30;;;;;;;5.14;100.00;101572.94;5008516;28;20153;-87
2020/12/21 04:03:40;;;;;;;13.75;5.05;;;;;;;5.13;100.00;101581.91;5017109;28;20184;-87
2020/12/21 04:06:05;;;;;;;14.07;5.65;;;;;;;5.12;100.00;101574.88;5017233;28;20148;-84
2020/12/21 04:08:31;;;;;;;14.82;5.72;;;;;;;5.11;100.00;101573.16;5020485;28;20049;-87
2020/12/21 04:10:59;;;;;;;13.35;5.60;;;;;;;5.09;100.00;101572.44;5019287;28;20087;-86
2020/12/21 04:13:26;;;;;;;16.35;6.10;;;;;;;5.08;100.00;101567.22;5023113;28;20041;-84
2020/12/21 04:15:52;;;;;;;15.10;5.57;;;;;;;5.06;100.00;101566.47;5000424;28;20107;-87
2020/12/21 04:18:17;;;;;;;20.38;6.35;;;;;;;5.04;100.00;101571.09;5003972;28;20395;-85
2020/12/21 04:20:42;;;;;;;11.90;4.88;;;;;;;5.04;100.00;101571.94;5022358;28;20461;-88
2020/12/21 04:23:08;;;;;;;23.42;6.00;;;;;;;5.01;100.00;101577.47;5018686;28;20038;-86
2020/12/21 04:25:33;;;;;;;12.02;5.28;;;;;;;4.96;100.00;101576.94;5025342;28;20053;-87
2020/12/21 04:27:58;;;;;;;8.73;4.75;;;;;;;4.99;100.00;101584.69;5000100;28;20049;-86
2020/12/21 04:30:24;;;;;;;13.98;4.82;;;;;;;4.96;100.00;101576.94;5020354;28;20160;-86
2020/12/21 04:32:49;;;;;;;15.43;5.40;;;;;;;4.95;100.00;101576.09;5025937;28;20138;-85
2020/12/21 04:35:14;;;;;;;15.82;6.32;;;;;;;4.96;100.00;101580.44;4986802;28;20648;-89
2020/12/21 04:37:42;;;;;;;15.73;5.93;;;;;;;4.93;100.00;101569.19;5022836;28;20310;-85
2020/12/21 04:40:07;;;;;;;16.30;5.93;;;;;;;4.94;100.00;101571.72;4987758;28;20478;-88
2020/12/21 04:42:54;;;;;;;17.13;5.10;;;;;;;4.92;100.00;101564.78;5006066;28;20171;-84
2020/12/21 04:45:21;;;;;;;20.30;5.57;;;;;;;4.90;100.00;101564.06;5004484;28;20037;-87
2020/12/21 04:47:47;;;;;;;11.77;5.32;;;;;;;4.89;100.00;101567.66;5017499;28;20099;-88
2020/12/21 04:50:15;;;;;;;14.82;5.28;;;;;;;4.89;100.00;101571.22;5029084;28;20044;-85
2020/12/21 04:52:51;;;;;;;16.67;5.60;;;;;;;4.92;100.00;101575.44;5015000;28;20041;-86
2020/12/21 04:55:22;;;;;;;13.70;5.70;;;;;;;4.88;100.00;101563.31;5015623;28;20041;-83
2020/12/21 04:57:59;;;;;;;13.95;5.45;;;;;;;4.87;100.00;101561.63;5022855;28;20151;-88
2020/12/21 05:00:26;;;;;;;9.82;5.03;;;;;;;4.84;100.00;101554.72;5024230;28;20029;-86
2020/12/21 05:02:53;;;;;;;15.45;5.65;;;;;;;4.81;100.00;101560.25;5025398;28;20546;-87
2020/12/21 05:05:27;;;;;;;17.00;5.30;;;;;;;4.79;100.00;101562.16;5020123;28;20478;-86
2020/12/21 05:07:53;;;;;;;15.02;5.20;;;;;;;4.71;100.00;101554.72;5006555;28;20931;-86
2020/12/21 05:10:19;;;;;;;12.07;4.78;;;;;;;4.70;100.00;101546.88;4997730;28;20042;-83
2020/12/21 05:12:45;;;;;;;12.10;4.65;;;;;;;4.67;100.00;101542.59;5025083;28;20053;-86
2020/12/21 05:15:13;;;;;;;15.30;5.45;;;;;;;4.70;100.00;101547.72;5009790;28;20040;-85
2020/12/21 05:17:38;;;;;;;14.07;4.82;;;;;;;4.74;100.00;101551.84;5018098;28;20050;-87
2020/12/21 05:20:05;;;;;;;20.15;5.18;;;;;;;4.74;100.00;101553.66;4994351;28;20056;-85
2020/12/21 05:22:30;;;;;;;14.48;4.82;;;;;;;4.78;100.00;101543.69;5021183;28;20119;-87
2020/12/21 05:25:08;;;;;;;14.13;5.22;;;;;;;4.72;100.00;101540.47;5008025;28;20086;-87
2020/12/21 05:27:34;;;;;;;19.47;5.20;;;;;;;4.75;100.00;101545.59;4992635;28;20115;-87
2020/12/21 05:30:00;;;;;;;15.30;4.70;;;;;;;4.75;100.00;101547.41;5022014;28;20128;-85
2020/12/21 05:32:26;;;;;;;13.10;4.85;;;;;;;4.78;100.00;101541.00;5009543;28;20045;-86
2020/12/21 05:34:52;;;;;;;12.02;4.65;;;;;;;4.82;100.00;101542.50;5026672;28;20045;-87
2020/12/21 05:37:27;;;;;;;12.50;5.30;;;;;;;4.78;100.00;101546.34;5027450;28;20034;-84
2020/12/21 05:39:55;;;;;;;14.10;5.45;;;;;;;4.78;100.00;101543.69;5020907;28;20041;-85
2020/12/21 05:42:21;;;;;;;12.25;4.30;;;;;;;4.78;100.00;101541.00;5004752;28;20402;-84
2020/12/21 05:44:57;;;;;;;11.85;4.57;;;;;;;4.79;100.00;101529.41;5040117;28;20052;-86
2020/12/21 05:47:24;;;;;;;16.42;5.20;;;;;;;4.77;100.00;101531.31;5026306;28;20509;-86
2020/12/21 05:49:55;;;;;;;17.45;4.97;;;;;;;4.72;100.00;101529.00;5011741;28;20050;-88
2020/12/21 05:52:27;;;;;;;13.77;5.47;;;;;;;4.73;100.00;101523.56;5022734;28;20041;-86
2020/12/21 05:54:53;;;;;;;14.10;5.75;;;;;;;4.70;100.00;101530.91;5025631;28;20068;-85
2020/12/21 05:57:20;;;;;;;20.23;6.65;;;;;;;4.65;100.00;101533.88;5020236;28;20065;-85
2020/12/21 05:59:49;;;;;;;18.35;5.88;;;;;;;4.63;100.00;101532.28;5029110;28;20494;-85
2020/12/21 06:02:18;;;;;;;15.52;5.70;;;;;;;4.62;100.00;101528.78;5008836;28;20042;-84
2020/12/21 06:04:49;;;;;;;14.68;5.65;;;;;;;4.56;100.00;101531.88;5024810;28;20054;-85
2020/12/21 06:07:22;;;;;;;18.63;6.35;;;;;;;4.52;100.00;101528.59;5015986;28;20046;-85
2020/12/21 06:09:51;;;;;;;17.67;6.38;;;;;;;4.50;100.00;101524.34;5016001;28;20131;-85
2020/12/21 06:12:21;;;;;;;19.08;7.22;;;;;;;4.45;100.00;101527.28;5012729;28;20042;-85
2020/12/21 06:14:53;;;;;;;17.38;6.65;;;;;;;4.43;100.00;101528.34;5027704;28;20047;-85
2020/12/21 06:17:19;;;;;;;21.15;7.60;;;;;;;4.42;100.00;101529.31;5027822;28;20041;-86
2020/12/21 06:19:44;;;;;;;17.98;8.13;;;;;;;4.41;100.00;101522.31;5022480;28;20403;-85
2020/12/21 06:22:09;;;;;;;18.38;7.80;;;;;;;4.38;100.00;101520.72;5023989;28;20072;-85
2020/12/21 06:24:38;;;;;;;17.98;8.13;;;;;;;4.36;100.00;101521.78;5021065;28;20084;-83
2020/12/21 06:27:14;;;;;;;22.52;8.57;;;;;;;4.32;100.00;101518.50;5025925;28;20045;-86
2020/12/21 06:29:41;;;;;;;26.17;10.35;;;;;;;4.29;100.00;101516.06;5015723;28;20092;-84
2020/12/21 06:32:08;;;;;;;21.77;10.13;;;;;;;4.27;100.00;101518.81;5019448;28;20048;-85
2020/12/21 06:34:37;;;;;;;24.27;9.82;;;;;;;4.27;100.00;101523.28;5021550;28;20499;-86
2020/12/21 06:37:12;;;;;;;25.38;9.90;;;;;;;4.26;100.00;101511.78;5022714;28;20437;-83
2020/12/21 06:39:38;;;;;;;22.13;10.27;;;;;;;4.26;100.00;101517.09;5022279;28;20033;-87
2020/12/21 06:42:08;;;;;;;21.10;10.15;;;;;;;4.20;100.00;101522.84;5006816;28;20108;-86
2020/12/21 06:44:37;;;;;;;23.10;10.80;;;;;;;4.23;100.00;101522.63;5026985;28;20038;-86
2020/12/21 06:47:02;;;;;;;;;;;;;;;4.26;100.00;101519.78;5021292;28;20120;-86
2020/12/21 06:49:28;;;;;;;21.85;9.27;;;;;;;4.23;100.00;101519.09;5007945;28;19992;-83
2020/12/21 06:51:53;;;;;;;15.95;8.93;;;;;;;4.25;100.00;101525.16;5005811;28;20076;-85
2020/12/21 06:54:19;;;;;;;18.35;8.15;;;;;;;4.30;100.00;101523.91;5025759;28;20038;-84
2020/12/21 06:56:46;;;;;;;18.55;9.15;;;;;;;4.35;100.00;101520.09;5020195;28;20397;-84
2020/12/21 06:59:17;;;;;;;15.93;7.55;;;;;;;4.40;100.00;101525.91;5005802;28;20029;-84
2020/12/21 07:01:45;;;;;;;20.48;8.55;;;;;;;4.42;100.00;101522.19;5018464;28;20042;-86
2020/12/21 07:04:12;;;;;;;16.42;7.72;;;;;;;4.48;100.00;101520.91;5027911;28;20037;-87
2020/12/21 07:06:39;;;;;;;19.20;7.30;;;;;;;4.52;100.00;101515.28;5029774;28;20487;-84
2020/12/21 07:09:05;;;;;;;19.45;7.75;;;;;;;4.52;100.00;101509.13;5018725;28;20057;-86
2020/12/21 07:11:31;;;;;;;20.67;7.15;;;;;;;4.55;100.00;101516.03;5010486;28;20041;-86
2020/12/21 07:13:57;;;;;;;17.45;6.22;;;;;;;4.57;100.00;101516.78;5021564;28;20053;-85
2020/12/21 07:16:22;;;;;;;15.13;6.25;;;;;;;4.59;100.00;101515.72;5026300;28;20033;-87
2020/12/21 07:18:48;;;;;;;15.50;7.10;;;;;;;4.63;100.00;101527.84;5005073;28;20053;-85
2020/12/21 07:21:15;;;;;;;16.35;5.88;;;;;;;4.67;100.00;101518.69;5023968;28;20574;-83
2020/12/21 07:23:42;;;;;;;15.68;6.05;;;;;;;4.72;100.00;101529.00;5021176;28;20564;-85
2020/12/21 07:26:08;;;;;;;13.57;6.50;;;;;;;4.77;100.00;101526.00;5018901;28;20121;-85
2020/12/21 07:28:33;;;;;;;13.45;5.25;;;;;;;4.80;100.00;101520.47;5020011;28;20486;-84
2020/12/21 07:31:13;;;;;;;11.00;4.90;;;;;;;4.86;100.00;101517.38;5019094;28;20045;-84
2020/12/21 07:33:55;;;;;;;12.35;4.55;;;;;;;4.90;100.00;101513.53;5017837;28;20053;-84
2020/12/21 07:36:27;;;;;;;14.07;5.07;;;;;;;4.95;100.00;101509.59;5016123;28;20041;-84
2020/12/21 07:39:03;;;;;;;11.00;4.55;;;;;;;4.99;100.00;101510.22;5019426;28;20065;-83
2020/12/21 07:41:29;;;;;;;12.20;4.50;;;;;;;5.03;100.00;101505.50;5019977;28;20069;-86
2020/12/21 07:44:05;;;;;;;9.88;4.00;;;;;;;5.05;100.00;101499.13;5000915;28;20053;-83
2020/12/21 07:46:39;;;;;;;12.15;4.25;;;;;;;5.11;100.00;101492.50;5020930;28;20033;-87
2020/12/21 07:49:06;;;;;;;8.52;4.10;;;;;;;5.14;100.00;101497.59;5022734;28;20064;-85
2020/12/21 07:51:35;;;;;;;11.38;3.75;;;;;;;5.17;100.00;101497.38;5025372;28;20040;-84
2020/12/21 07:54:01;;;;;;;12.38;4.22;;;;;;;5.20;100.00;101500.66;5022666;28;20041;-86
2020/12/21 07:56:27;;;;;;;11.88;4.60;;;;;;;5.22;100.00;101505.03;5022017;28;20099;-87
2020/12/21 07:58:52;;;;;;;11.15;4.38;;;;;;;5.25;100.00;101494.16;5020070;28;20044;-83
2020/12/21 08:01:24;;;;;;;10.00;4.00;;;;;;;5.28;100.00;101493.94;5006366;28;20165;-87
2020/12/21 08:03:53;;;;;;;11.18;4.45;;;;;;;5.30;100.00;101500.00;5022842;28;20494;-85
2020/12/21 08:06:23;;;;;;;12.82;3.83;;;;;;;5.29;100.00;101501.78;5024721;28;20514;-85
2020/12/21 08:08:50;;;;;;;12.10;4.88;;;;;;;5.29;100.00;101498.28;5019780;28;20389;-83
2020/12/21 08:11:18;;;;;;;10.95;4.18;;;;;;;5.31;100.00;101499.88;5008029;28;20025;-85
2020/12/21 08:13:50;;;;;;;10.05;4.00;;;;;;;5.32;100.00;101498.06;5018141;28;20501;-87
2020/12/21 08:16:24;;;;;;;11.30;3.95;;;;;;;5.38;100.00;101497.59;5020954;28;20034;-85
2020/12/21 08:18:51;;;;;;;10.10;4.00;;;;;;;5.41;100.00;101495.59;5018018;28;20045;-86
2020/12/21 08:21:17;;;;;;;12.40;4.40;;;;;;;5.45;100.00;101490.88;5025904;28;20041;-86
2020/12/21 08:23:55;;;;;;;11.02;3.97;;;;;;;5.49;100.00;101492.34;5024458;28;20580;-84
2020/12/21 08:26:21;;;;;;;9.35;3.25;;;;;;;5.52;99.88;101496.59;5018768;28;20045;-88
2020/12/21 08:28:49;;;;;;;8.95;3.70;;;;;;;5.53;99.96;101483.19;5023930;28;20068;-86
2020/12/21 08:31:19;;;;;;;10.98;3.33;;;;;;;5.56;99.72;101482.94;5019078;28;20496;-84
2020/12/21 08:34:01;;;;;;;10.13;3.60;;;;;;;5.61;99.48;101485.25;5019259;28;20045;-87
2020/12/21 08:36:38;;;;;;;7.82;3.20;;;;;;;5.62;99.25;101484.31;5015847;28;20125;-84
2020/12/21 08:39:18;;;;;;;13.55;3.50;;;;;;;5.63;99.38;101473.50;5021062;28;20115;-85
2020/12/21 08:42:00;;;;;;;13.23;4.43;;;;;;;5.65;99.10;101476.06;5020954;28;20394;-84
2020/12/21 08:44:27;;;;;;;11.88;3.78;;;;;;;5.68;98.97;101480.31;5020917;28;20049;-86
2020/12/21 08:46:55;;;;;;;10.32;3.40;;;;;;;5.71;99.00;101477.44;5024002;28;20485;-85
2020/12/21 08:49:21;;;;;;;11.70;3.38;;;;;;;5.72;98.98;101471.97;5012841;28;20125;-84
2020/12/21 08:51:48;;;;;;;12.25;3.97;;;;;;;5.75;98.65;101474.41;5015809;28;20037;-86
2020/12/21 08:54:14;;;;;;;8.85;3.30;;;;;;;5.78;98.58;101454.69;5021022;28;20049;-84
2020/12/21 08:56:40;;;;;;;10.85;3.47;;;;;;;5.82;98.44;101456.16;5024917;28;20559;-86
2020/12/21 08:59:06;;;;;;;14.27;3.47;;;;;;;5.83;98.49;101455.19;5017780;28;20446;-85
2020/12/21 09:01:31;;;;;;;8.98;3.50;;;;;;;5.86;98.42;101453.13;5005531;28;20383;-85
2020/12/21 09:03:57;;;;;;;10.60;3.38;;;;;;;5.87;98.03;101459.31;5019809;28;20036;-84
2020/12/21 09:06:23;;;;;;;11.30;3.80;;;;;;;5.91;98.23;101459.94;5000244;28;20034;-84
2020/12/21 09:08:50;;;;;;;9.27;3.35;;;;;;;5.94;97.77;101444.59;5013672;28;20121;-84
2020/12/21 09:11:20;;;;;;;14.30;3.67;;;;;;;5.99;97.76;101438.91;5022488;28;20038;-85
2020/12/21 09:13:46;;;;;;;9.73;3.40;;;;;;;6.01;97.74;101451.16;5014747;28;20487;-84
2020/12/21 09:16:12;;;;;;;8.95;3.05;;;;;;;6.05;97.53;101452.59;5022953;28;20516;-86
2020/12/21 09:18:38;;;;;;;14.18;4.28;;;;;;;6.10;97.35;101449.59;5003902;28;20044;-85
2020/12/21 09:21:03;;;;;;;7.45;3.15;;;;;;;6.15;97.38;101449.22;5022438;28;20413;-85
2020/12/21 09:23:30;;;;;;;9.80;3.17;;;;;;;6.18;97.11;101438.31;5022309;28;20360;-85
2020/12/21 09:25:56;;;;;;;6.93;3.20;;;;;;;6.21;97.04;101427.41;5016855;28;20491;-84
2020/12/21 09:28:21;;;;;;;10.45;3.00;;;;;;;6.23;96.98;101422.81;5023071;28;20046;-84
2020/12/21 09:30:47;;;;;;;8.55;3.10;;;;;;;6.27;96.77;101409.13;5003878;28;20074;-84
2020/12/21 09:33:12;;;;;;;10.82;3.22;;;;;;;6.30;96.84;101418.69;5008743;28;20378;-85
2020/12/21 09:35:38;;;;;;;6.65;2.88;;;;;;;6.35;96.27;101434.31;5020917;28;20112;-86
2020/12/21 09:38:03;;;;;;;7.07;3.40;;;;;;;6.39;96.53;101425.97;5008834;28;20041;-85
2020/12/21 09:40:28;;;;;;;9.00;2.78;;;;;;;6.43;96.25;101424.75;5027893;28;20045;-85
2020/12/21 09:42:54;;;;;;;10.27;2.88;;;;;;;6.45;96.04;101430.81;5024314;28;20115;-85
2020/12/21 09:45:19;;;;;;;13.48;3.92;;;;;;;6.48;96.17;101430.56;4993826;28;20366;-85
2020/12/21 09:47:45;;;;;;;10.48;3.78;;;;;;;6.52;95.98;101428.50;5025387;28;20432;-84
2020/12/21 09:50:11;;;;;;;9.57;3.20;;;;;;;6.54;95.80;101429.25;5005319;28;20155;-85
2020/12/21 09:52:37;;;;;;;11.13;3.58;;;;;;;6.54;95.95;101422.09;5026308;28;20398;-85
2020/12/21 09:55:02;;;;;;;10.68;3.28;;;;;;;6.59;95.79;101407.53;5025711;28;20048;-84
2020/12/21 09:57:28;;;;;;;11.98;3.67;;;;;;;6.61;95.67;101401.09;5026275;28;20091;-86
2020/12/21 09:59:53;;;;;;;9.32;3.33;;;;;;;6.64;95.85;101405.34;5006362;28;20053;-84
2020/12/21 10:02:19;;;;;;;6.47;2.72;;;;;;;6.66;95.74;101419.41;5026892;28;20124;-86
2020/12/21 10:04:44;;;;;;;9.43;3.10;;;;;;;6.69;95.85;101413.81;5026215;28;20053;-84
2020/12/21 10:07:09;;;;;;;9.25;3.42;;;;;;;6.72;95.88;101405.56;5020851;28;20049;-84
2020/12/21 10:09:35;;;;;;;10.77;3.03;;;;;;;6.74;95.64;101408.97;4995204;28;20508;-84
2020/12/21 10:12:00;;;;;;;12.18;3.05;;;;;;;6.77;95.64;101400.72;4997946;28;20049;-84
2020/12/21 10:14:26;;;;;;;8.90;2.75;;;;;;;6.81;95.78;101385.28;5005654;28;20034;-85
2020/12/21 10:16:53;;;;;;;8.85;2.55;;;;;;;6.86;95.33;101388.44;5005424;28;20050;-84
2020/12/21 10:19:18;;;;;;;6.43;2.75;;;;;;;6.87;95.16;101376.78;5023411;28;20120;-86
2020/12/21 10:21:43;;;;;;;9.90;2.97;;;;;;;6.91;95.46;101371.09;5028383;28;20121;-85
2020/12/21 10:24:09;;;;;;;12.82;3.55;;;;;;;6.94;95.16;101362.00;5012118;28;20069;-86
2020/12/21 10:26:38;;;;;;;10.13;3.00;;;;;;;6.97;94.89;101354.56;5029594;28;20124;-85
2020/12/21 10:29:03;;;;;;;9.73;3.28;;;;;;;7.00;94.95;101359.66;5023744;28;20070;-84
2020/12/21 10:31:29;;;;;;;11.50;3.15;;;;;;;7.03;94.50;101358.56;4993772;28;20128;-85
2020/12/21 10:33:54;;;;;;;11.57;3.90;;;;;;;7.08;94.61;101355.47;5019104;28;20125;-85
2020/12/21 10:36:19;;;;;;;11.45;3.70;;;;;;;7.09;94.60;101350.03;5022713;28;20045;-86
2020/12/21 10:38:45;;;;;;;9.27;3.40;;;;;;;7.13;94.41;101345.28;5028330;28;20068;-85
2020/12/21 10:41:10;;;;;;;12.30;3.95;;;;;;;7.16;94.52;101347.69;5010784;28;20053;-86
2020/12/21 10:43:36;;;;;;;9.63;2.88;;;;;;;7.18;94.63;101340.41;4993034;28;20119;-86
2020/12/21 10:46:02;;;;;;;8.25;2.83;;;;;;;7.19;94.39;101331.41;5006349;28;20042;-84
2020/12/21 10:48:27;;;;;;;10.65;3.38;;;;;;;7.20;95.03;101335.78;5009966;28;20048;-85
2020/12/21 10:50:54;;;;;;;8.20;2.97;;;;;;;7.18;95.41;101332.41;5017821;28;20125;-85
2020/12/21 10:53:20;;;;;;;10.63;2.75;;;;;;;7.19;96.04;101328.75;4992353;28;20038;-85
2020/12/21 10:55:45;;;;;;;10.27;2.90;;;;;;;7.20;96.06;101327.78;5020353;28;20056;-85
2020/12/21 10:58:11;;;;;;;11.82;3.40;;;;;;;7.21;96.25;101326.78;5008882;28;20490;-85
2020/12/21 11:00:36;;;;;;;8.52;3.13;;;;;;;7.21;95.73;101310.78;4992507;28;20281;-84
2020/12/21 11:03:02;;;;;;;7.75;3.00;;;;;;;7.25;95.20;101296.22;5012449;28;20141;-85
2020/12/21 11:05:28;;;;;;;14.02;4.10;;;;;;;7.28;95.26;101292.41;5022674;28;20045;-84
2020/12/21 11:07:54;;;;;;;9.57;3.10;;;;;;;7.27;95.49;101288.91;5006015;28;20127;-84
2020/12/21 11:10:19;;;;;;;7.00;3.13;;;;;;;7.31;95.51;101282.34;5020981;28;20471;-86
2020/12/21 11:12:44;;;;;;;8.35;3.08;;;;;;;7.33;95.55;101279.53;5021276;28;20572;-86
2020/12/21 11:15:10;;;;;;;9.63;3.45;;;;;;;7.34;95.53;101276.75;5005558;28;20161;-85
2020/12/21 11:17:35;;;;;;;8.77;3.15;;;;;;;7.35;95.22;101274.91;5028407;28;20038;-86
2020/12/21 11:20:02;;;;;;;13.93;3.58;;;;;;;7.37;95.77;101275.63;5003383;28;20045;-84
2020/12/21 11:22:27;;;;;;;8.27;3.03;;;;;;;7.40;95.53;101260.19;5026582;28;20036;-86